Terminal Aerodrome Forecast
Issued by NWS

Home | Current Version | Previous Version | Text Only | Print | Product List | Glossary On
Versions: 1 2 3 4 5 6 7 8 9 10 11 12 13 14 15 16
000
FTUS41 KBOX 102320
TAFHYA
TAF
KHYA 102320Z 1100/1124 26008KT P6SM SCT250
     FM110600 25006KT P6SM BKN030
     FM111100 26008KT P6SM VCSH OVC030
     FM111200 26008KT P6SM OVC030
     FM111600 27010G19KT P6SM SCT025
     FM112200 29006KT P6SM FEW200=

USA.gov is the U.S. government's official web portal to all federal, state and local government web resources and services.